createdAt,value
2019-04-04T00:01:42.081Z,15.25
2019-04-04T00:04:21.847Z,15.25
2019-04-04T00:06:57.993Z,15.25
2019-04-04T00:09:28.410Z,15.23
2019-04-04T00:11:59.441Z,15.22
2019-04-04T00:14:30.705Z,15.21
2019-04-04T00:17:01.517Z,15.19
2019-04-04T00:19:32.803Z,15.16
2019-04-04T00:22:04.953Z,15.08
2019-04-04T00:24:39.614Z,14.95
2019-04-04T00:27:13.358Z,14.85
2019-04-04T00:29:45.953Z,14.80
2019-04-04T00:32:23.987Z,14.77
2019-04-04T00:34:55.410Z,14.73
2019-04-04T00:37:25.951Z,14.66
2019-04-04T00:39:58.078Z,14.61
2019-04-04T00:42:29.453Z,14.42
2019-04-04T00:45:05.999Z,14.28
2019-04-04T00:47:36.475Z,14.13
2019-04-04T00:50:07.862Z,14.03
2019-04-04T00:52:40.737Z,13.92
2019-04-04T00:55:11.605Z,13.80
2019-04-04T00:57:42.335Z,13.68
2019-04-04T01:00:15.458Z,13.59
2019-04-04T01:02:46.277Z,13.45
2019-04-04T01:05:16.784Z,13.32
2019-04-04T01:07:48.132Z,13.26
2019-04-04T01:10:19.523Z,13.22
2019-04-04T01:12:52.786Z,13.19
2019-04-04T01:15:25.047Z,13.13
2019-04-04T01:17:57.900Z,13.00
2019-04-04T01:20:50.381Z,12.93
2019-04-04T01:23:19.966Z,12.85
2019-04-04T01:25:50.623Z,12.75
2019-04-04T01:28:21.661Z,12.70
2019-04-04T01:30:55.550Z,12.59
2019-04-04T01:33:28.721Z,12.50
2019-04-04T01:36:00.267Z,12.47
2019-04-04T01:38:30.800Z,12.37
2019-04-04T01:41:05.196Z,12.23
2019-04-04T01:43:36.194Z,12.08
2019-04-04T01:46:07.429Z,12.02
2019-04-04T01:48:37.949Z,11.95
2019-04-04T01:51:08.432Z,11.90
2019-04-04T01:53:44.640Z,11.85
2019-04-04T01:56:15.218Z,11.75
2019-04-04T01:58:46.220Z,11.59
2019-04-04T02:01:18.770Z,11.54
2019-04-04T02:03:49.594Z,11.52
2019-04-04T02:06:22.523Z,11.44
2019-04-04T02:08:53.554Z,11.41
2019-04-04T02:11:24.498Z,11.48
2019-04-04T02:13:54.936Z,11.49
2019-04-04T02:16:27.417Z,11.47
2019-04-04T02:19:06.286Z,11.40
2019-04-04T02:21:39.103Z,11.34
2019-04-04T02:24:10.384Z,11.27
2019-04-04T02:26:41.360Z,11.27
2019-04-04T02:29:13.640Z,11.26
2019-04-04T02:31:54.523Z,11.31
2019-04-04T02:34:28.657Z,11.38
2019-04-04T02:37:03.626Z,11.51
2019-04-04T02:39:35.360Z,11.64
2019-04-04T02:42:08.013Z,11.68
2019-04-04T02:44:38.922Z,11.69
2019-04-04T02:47:09.778Z,11.66
2019-04-04T02:49:41.340Z,11.73
2019-04-04T02:52:13.300Z,11.72
2019-04-04T02:54:44.116Z,11.78
2019-04-04T02:57:17.332Z,11.77
2019-04-04T02:59:56.332Z,11.75
2019-04-04T03:02:26.719Z,11.74
2019-04-04T03:04:57.508Z,11.79
2019-04-04T03:07:30.929Z,11.78
2019-04-04T03:10:00.549Z,11.79
2019-04-04T03:12:31.230Z,11.80
2019-04-04T03:15:02.781Z,11.84
2019-04-04T03:17:33.479Z,11.84
2019-04-04T03:20:04.117Z,11.85
2019-04-04T03:22:34.609Z,11.89
2019-04-04T03:25:08.358Z,11.93
2019-04-04T03:27:39.294Z,11.90
2019-04-04T03:30:17.862Z,11.88
2019-04-04T03:32:54.467Z,11.85
2019-04-04T03:35:27.901Z,11.71
2019-04-04T03:37:59.374Z,11.64
2019-04-04T03:40:29.988Z,11.52
2019-04-04T03:43:00.404Z,11.43
2019-04-04T03:45:31.402Z,11.41
2019-04-04T03:48:01.899Z,11.31
2019-04-04T03:50:33.571Z,11.23
2019-04-04T03:53:06.524Z,11.23
2019-04-04T03:55:37.117Z,11.21
2019-04-04T03:58:09.287Z,11.25
2019-04-04T04:00:40.608Z,11.31
2019-04-04T04:03:15.589Z,11.35
2019-04-04T04:05:47.291Z,11.41
2019-04-04T04:08:20.969Z,11.49
2019-04-04T04:10:50.033Z,11.51
2019-04-04T04:13:21.963Z,11.57
2019-04-04T04:15:52.373Z,11.61
2019-04-04T04:18:23.097Z,11.65
2019-04-04T04:20:55.769Z,11.65
2019-04-04T04:23:26.271Z,11.67
2019-04-04T04:26:01.616Z,11.71
2019-04-04T04:28:32.406Z,11.72
2019-04-04T04:31:06.430Z,11.74
2019-04-04T04:33:37.192Z,11.74
2019-04-04T04:36:10.045Z,11.81
2019-04-04T04:38:40.977Z,11.83
2019-04-04T04:41:11.839Z,11.91
2019-04-04T04:43:45.695Z,11.98
2019-04-04T04:46:17.807Z,11.93
2019-04-04T04:48:48.975Z,11.99
2019-04-04T04:51:20.197Z,12.06
2019-04-04T04:53:51.306Z,12.05
2019-04-04T04:56:26.518Z,12.06
2019-04-04T04:58:55.634Z,12.14
2019-04-04T05:01:26.467Z,12.17
2019-04-04T05:03:58.990Z,12.11
2019-04-04T05:06:35.607Z,12.18
2019-04-04T05:09:07.428Z,12.16
2019-04-04T05:11:38.184Z,12.13
2019-04-04T05:14:09.127Z,12.13
2019-04-04T05:16:40.814Z,12.09
2019-04-04T05:19:14.465Z,12.07
2019-04-04T05:22:03.900Z,12.07
2019-04-04T05:24:36.574Z,12.08
2019-04-04T05:27:11.594Z,12.07
2019-04-04T05:29:48.168Z,12.03
2019-04-04T05:32:20.899Z,12.00
2019-04-04T05:34:53.409Z,12.01
2019-04-04T05:37:27.496Z,11.92
2019-04-04T05:39:58.946Z,11.87
2019-04-04T05:42:32.859Z,11.89
2019-04-04T05:45:01.958Z,11.95
2019-04-04T05:47:34.982Z,12.01
2019-04-04T05:50:11.033Z,12.03
2019-04-04T05:52:39.196Z,12.14
2019-04-04T05:55:12.737Z,12.30
2019-04-04T05:57:43.752Z,12.42
2019-04-04T06:00:18.312Z,12.41
2019-04-04T06:02:49.496Z,12.43
2019-04-04T06:05:23.071Z,12.40
2019-04-04T06:07:55.122Z,12.35
2019-04-04T06:10:28.863Z,12.32
2019-04-04T06:12:59.724Z,12.42
2019-04-04T06:15:32.167Z,12.41
2019-04-04T06:18:05.898Z,12.43
2019-04-04T06:20:38.552Z,12.45
2019-04-04T06:23:09.207Z,12.40
2019-04-04T06:25:39.719Z,12.41
2019-04-04T06:28:12.002Z,12.33
2019-04-04T06:30:43.797Z,12.28
2019-04-04T06:33:16.536Z,12.24
2019-04-04T06:35:48.639Z,12.25
2019-04-04T06:38:23.082Z,12.26
2019-04-04T06:40:51.760Z,12.25
2019-04-04T06:43:22.563Z,12.29
2019-04-04T06:45:53.489Z,12.35
2019-04-04T06:48:24.269Z,12.30
2019-04-04T06:50:55.540Z,12.36
2019-04-04T06:53:36.809Z,12.41
2019-04-04T06:56:14.341Z,12.31
2019-04-04T06:58:48.865Z,12.33
2019-04-04T07:01:21.901Z,12.35
2019-04-04T07:03:52.921Z,12.49
2019-04-04T07:06:23.420Z,12.61
2019-04-04T07:08:57.829Z,12.68
2019-04-04T07:11:32.997Z,12.85
2019-04-04T07:14:04.664Z,13.03
2019-04-04T07:16:46.821Z,13.27
2019-04-04T07:19:28.876Z,13.51
2019-04-04T07:22:05.222Z,13.49
2019-04-04T07:27:38.747Z,13.20
2019-04-04T07:30:19.209Z,13.09
2019-04-04T07:32:50.609Z,13.09
2019-04-04T07:35:21.498Z,12.91
2019-04-04T07:37:57.682Z,13.12
2019-04-04T07:40:28.691Z,13.53
2019-04-04T07:43:00.941Z,13.63
2019-04-04T07:45:34.171Z,13.69
2019-04-04T07:48:06.395Z,13.77
2019-04-04T07:50:37.563Z,14.04
2019-04-04T07:53:11.270Z,14.24
2019-04-04T07:55:43.905Z,14.48
2019-04-04T07:58:20.153Z,14.57
2019-04-04T08:00:50.758Z,14.35
2019-04-04T08:03:24.688Z,14.32
2019-04-04T08:05:58.352Z,14.62
2019-04-04T08:08:35.540Z,15.03
2019-04-04T08:11:13.221Z,15.36
2019-04-04T08:13:43.343Z,15.31
2019-04-04T08:16:14.412Z,15.26
2019-04-04T08:18:44.919Z,14.99
2019-04-04T08:21:17.006Z,14.75
2019-04-04T08:23:51.407Z,14.81
2019-04-04T08:26:22.005Z,15.08
2019-04-04T08:28:52.748Z,14.92
2019-04-04T08:31:28.437Z,15.00
2019-04-04T08:34:02.083Z,15.06
2019-04-04T08:36:35.815Z,15.07
2019-04-04T08:39:10.145Z,14.95
2019-04-04T08:41:40.664Z,14.97
2019-04-04T08:44:11.146Z,15.06
2019-04-04T08:46:44.511Z,15.04
2019-04-04T08:49:15.197Z,15.11
2019-04-04T08:51:47.300Z,14.80
2019-04-04T08:54:18.454Z,14.47
2019-04-04T08:57:01.357Z,14.32
2019-04-04T08:59:32.029Z,14.43
2019-04-04T09:02:05.080Z,14.37
2019-04-04T09:04:41.627Z,14.35
2019-04-04T09:07:12.685Z,14.44
2019-04-04T09:09:45.215Z,14.58
2019-04-04T09:12:16.213Z,14.59
2019-04-04T09:14:47.740Z,14.55
2019-04-04T09:17:20.911Z,14.48
2019-04-04T09:19:51.770Z,14.65
2019-04-04T09:22:26.251Z,14.95
2019-04-04T09:24:57.359Z,15.04
2019-04-04T09:27:28.106Z,14.90
2019-04-04T09:29:58.681Z,14.73
2019-04-04T09:32:30.283Z,14.83
2019-04-04T09:35:00.979Z,14.95
2019-04-04T09:37:31.590Z,14.76
2019-04-04T09:40:02.101Z,14.76
2019-04-04T09:42:37.232Z,14.84
2019-04-04T09:45:08.594Z,15.00
2019-04-04T09:47:39.389Z,15.02
2019-04-04T09:50:18.323Z,15.17
2019-04-04T09:52:50.723Z,15.21
2019-04-04T09:55:23.933Z,15.32
2019-04-04T09:57:59.372Z,15.22
2019-04-04T10:00:29.776Z,15.24
2019-04-04T10:03:01.349Z,15.54
2019-04-04T10:05:31.881Z,15.60
2019-04-04T10:08:02.552Z,15.80
2019-04-04T10:10:33.366Z,15.98
2019-04-04T10:13:06.216Z,16.25
2019-04-04T10:15:39.687Z,16.32
2019-04-04T10:18:12.065Z,16.36
2019-04-04T10:20:43.370Z,16.54
2019-04-04T10:23:16.810Z,16.65
2019-04-04T10:25:50.573Z,16.68
2019-04-04T10:28:23.309Z,16.64
2019-04-04T10:30:53.508Z,16.43
2019-04-04T10:33:24.244Z,16.32
2019-04-04T10:35:54.716Z,16.25
2019-04-04T10:38:48.386Z,16.26
2019-04-04T10:41:18.838Z,16.77
2019-04-04T10:43:49.795Z,17.15
2019-04-04T10:46:20.155Z,17.15
2019-04-04T10:48:51.120Z,17.03
2019-04-04T10:51:22.194Z,16.91
2019-04-04T10:53:54.122Z,16.70
2019-04-04T10:56:26.961Z,16.55
2019-04-04T10:58:59.146Z,16.61
2019-04-04T11:01:29.639Z,16.72
2019-04-04T11:04:00.205Z,16.78
2019-04-04T11:06:33.061Z,16.76
2019-04-04T11:09:04.244Z,16.78
2019-04-04T11:11:34.923Z,16.77
2019-04-04T11:14:05.454Z,16.81
2019-04-04T11:16:35.825Z,16.86
2019-04-04T11:19:09.567Z,16.89
2019-04-04T11:21:39.462Z,17.03
2019-04-04T11:24:09.829Z,17.10
2019-04-04T11:26:40.266Z,17.27
2019-04-04T11:29:11.159Z,17.53
2019-04-04T11:31:41.531Z,17.99
2019-04-04T11:34:11.982Z,18.12
2019-04-04T11:36:42.709Z,17.92
2019-04-04T11:39:13.175Z,17.89
2019-04-04T11:41:43.601Z,17.92
2019-04-04T11:44:14.016Z,17.98
2019-04-04T11:46:44.648Z,17.88
2019-04-04T11:49:15.392Z,18.16
2019-04-04T11:51:49.172Z,18.41
2019-04-04T11:54:19.961Z,18.50
2019-04-04T11:56:50.404Z,18.58
2019-04-04T11:59:24.272Z,18.48
2019-04-04T12:01:55.998Z,18.48
2019-04-04T12:04:26.497Z,18.48
2019-04-04T12:06:56.862Z,18.52
2019-04-04T12:09:27.783Z,18.64
2019-04-04T12:11:58.625Z,18.96
2019-04-04T12:14:29.069Z,19.09
2019-04-04T12:16:59.500Z,19.12
2019-04-04T12:19:31.336Z,19.08
2019-04-04T12:22:01.739Z,19.26
2019-04-04T12:24:35.260Z,19.29
2019-04-04T12:27:05.687Z,19.35
2019-04-04T12:29:36.074Z,19.28
2019-04-04T12:32:06.599Z,19.30
2019-04-04T12:34:36.958Z,19.45
2019-04-04T12:37:07.409Z,19.63
2019-04-04T12:39:41.180Z,19.76
2019-04-04T12:42:11.940Z,20.05
2019-04-04T12:44:42.272Z,20.13
2019-04-04T12:47:12.664Z,20.35
2019-04-04T12:49:43.120Z,20.50
2019-04-04T12:52:13.886Z,20.47
2019-04-04T12:54:44.694Z,20.52
2019-04-04T12:57:15.441Z,20.65
2019-04-04T12:59:47.539Z,20.90
2019-04-04T13:02:18.213Z,21.06
2019-04-04T13:04:48.587Z,21.00
2019-04-04T13:07:19.186Z,21.03
2019-04-04T13:09:49.489Z,21.03
2019-04-04T13:12:19.913Z,21.11
2019-04-04T13:14:50.673Z,21.11
2019-04-04T13:17:24.580Z,21.22
2019-04-04T13:19:54.963Z,21.36
2019-04-04T13:22:25.803Z,21.47
2019-04-04T13:24:56.745Z,21.43
2019-04-04T13:27:29.110Z,21.52
2019-04-04T13:30:00.072Z,21.69
2019-04-04T13:32:30.802Z,21.73
2019-04-04T13:35:04.853Z,21.77
2019-04-04T13:37:33.319Z,21.87
2019-04-04T13:40:03.760Z,22.09
2019-04-04T13:42:34.362Z,22.15
2019-04-04T13:45:05.628Z,22.19
2019-04-04T13:47:39.240Z,22.31
2019-04-04T13:50:12.421Z,22.41
2019-04-04T13:52:43.125Z,22.75
2019-04-04T13:55:13.869Z,22.97
2019-04-04T13:57:45.446Z,23.19
2019-04-04T14:00:17.194Z,23.47
2019-04-04T14:02:48.359Z,23.74
2019-04-04T14:05:20.062Z,23.82
2019-04-04T14:07:51.972Z,23.78
2019-04-04T14:10:22.518Z,23.70
2019-04-04T14:12:52.968Z,23.63
2019-04-04T14:15:42.484Z,23.61
2019-04-04T14:18:22.842Z,23.59
2019-04-04T14:21:03.270Z,23.45
2019-04-04T14:23:28.182Z,23.41
2019-04-04T14:26:00.047Z,23.42
2019-04-04T14:28:30.936Z,23.54
2019-04-04T14:31:01.879Z,23.46
2019-04-04T14:33:32.538Z,23.43
2019-04-04T14:36:03.114Z,23.50
2019-04-04T14:38:34.050Z,23.44
2019-04-04T14:41:11.610Z,23.44
2019-04-04T14:43:41.957Z,23.44
2019-04-04T14:46:13.007Z,23.52
2019-04-04T14:48:43.397Z,23.58
2019-04-04T14:51:13.756Z,23.59
2019-04-04T14:53:44.130Z,23.55
2019-04-04T14:56:14.804Z,23.46
2019-04-04T14:58:45.530Z,23.43
2019-04-04T15:01:16.673Z,23.40
2019-04-04T15:03:47.165Z,23.36
2019-04-04T15:07:05.238Z,23.36
2019-04-04T15:09:52.166Z,23.35
2019-04-04T15:12:22.638Z,23.35
2019-04-04T15:14:53.464Z,23.35
2019-04-04T15:17:23.932Z,23.26
2019-04-04T15:19:54.296Z,23.14
2019-04-04T15:22:24.738Z,23.05
2019-04-04T15:24:55.142Z,23.06
2019-04-04T15:27:25.662Z,23.07
2019-04-04T15:29:56.035Z,23.09
2019-04-04T15:32:26.417Z,22.99
2019-04-04T15:35:11.517Z,22.87
2019-04-04T15:38:02.977Z,22.71
2019-04-04T15:40:34.009Z,22.59
2019-04-04T15:43:04.348Z,22.60
2019-04-04T15:45:35.981Z,22.46
2019-04-04T15:48:06.479Z,22.36
2019-04-04T15:50:37.041Z,22.27
2019-04-04T15:53:15.571Z,22.20
2019-04-04T15:55:46.108Z,22.20
2019-04-04T15:58:16.576Z,22.20
2019-04-04T16:00:47.357Z,22.23
2019-04-04T16:03:17.930Z,22.24
2019-04-04T16:05:48.967Z,22.21
2019-04-04T16:08:19.982Z,22.19
2019-04-04T16:10:50.541Z,22.18
2019-04-04T16:13:20.965Z,22.16
2019-04-04T16:15:51.396Z,22.15
2019-04-04T16:18:24.504Z,22.13
2019-04-04T16:20:55.361Z,22.12
2019-04-04T16:23:25.829Z,22.13
2019-04-04T16:25:56.275Z,22.14
2019-04-04T16:28:27.202Z,22.16
2019-04-04T16:30:57.843Z,22.19
2019-04-04T16:33:32.412Z,22.18
2019-04-04T16:36:05.292Z,22.22
2019-04-04T16:38:35.646Z,22.22
2019-04-04T16:41:06.175Z,22.23
2019-04-04T16:43:44.853Z,22.21
2019-04-04T16:46:26.229Z,22.17
2019-04-04T16:48:56.634Z,22.08
2019-04-04T16:51:27.670Z,22.02
2019-04-04T16:53:58.121Z,21.95
2019-04-04T16:56:28.764Z,21.85
2019-04-04T16:59:06.478Z,21.70
2019-04-04T17:01:37.615Z,21.64
2019-04-04T17:04:08.709Z,21.61
2019-04-04T17:06:39.036Z,21.55
2019-04-04T17:09:09.920Z,21.52
2019-04-04T17:11:40.468Z,21.50
2019-04-04T17:14:15.103Z,21.46
2019-04-04T17:16:45.220Z,21.40
2019-04-04T17:19:15.966Z,21.34
2019-04-04T17:21:48.307Z,21.28
2019-04-04T17:24:19.589Z,21.18
2019-04-04T17:26:49.979Z,21.07
2019-04-04T17:29:20.730Z,20.94
2019-04-04T17:31:51.522Z,20.82
2019-04-04T17:34:21.930Z,20.69
2019-04-04T17:36:52.293Z,20.31
2019-04-04T17:39:23.049Z,19.75
2019-04-04T17:41:53.822Z,19.33
2019-04-04T17:44:25.056Z,19.11
2019-04-04T17:46:56.284Z,18.85
2019-04-04T17:49:27.120Z,18.55
2019-04-04T17:51:57.582Z,18.31
2019-04-04T17:54:28.500Z,18.09
2019-04-04T17:56:59.374Z,17.93
2019-04-04T17:59:30.456Z,17.74
2019-04-04T18:02:04.875Z,17.50
2019-04-04T18:04:47.533Z,17.37
2019-04-04T18:07:07.863Z,17.26
2019-04-04T18:09:38.220Z,17.12
2019-04-04T18:12:09.032Z,16.97
2019-04-04T18:14:41.254Z,16.84
2019-04-04T18:17:14.884Z,16.61
2019-04-04T18:19:45.502Z,16.44
2019-04-04T18:22:16.271Z,16.28
2019-04-04T18:24:47.217Z,16.14
2019-04-04T18:27:18.004Z,16.05
2019-04-04T18:29:48.394Z,15.90
2019-04-04T18:32:18.913Z,15.81
2019-04-04T18:34:49.630Z,15.74
2019-04-04T18:37:20.072Z,15.73
2019-04-04T18:39:54.582Z,15.70
2019-04-04T18:42:25.092Z,15.65
2019-04-04T18:44:58.286Z,15.59
2019-04-04T18:47:29.120Z,15.52
2019-04-04T18:49:59.553Z,15.45
2019-04-04T18:52:30.070Z,15.31
2019-04-04T18:55:01.642Z,15.18
2019-04-04T18:57:31.990Z,15.10
2019-04-04T19:00:02.715Z,15.05
2019-04-04T19:02:34.053Z,14.98
2019-04-04T19:05:04.907Z,14.90
2019-04-04T19:07:39.726Z,14.79
2019-04-04T19:10:12.394Z,14.73
2019-04-04T19:12:42.959Z,14.66
2019-04-04T19:15:16.964Z,14.52
2019-04-04T19:17:47.447Z,14.42
2019-04-04T19:20:19.842Z,14.36
2019-04-04T19:22:52.129Z,14.27
2019-04-04T19:25:23.249Z,14.13
2019-04-04T19:27:54.116Z,14.05
2019-04-04T19:30:24.778Z,13.95
2019-04-04T19:32:55.665Z,13.88
2019-04-04T19:35:27.757Z,13.80
2019-04-04T19:38:01.535Z,13.75
2019-04-04T19:40:32.373Z,13.69
2019-04-04T19:43:02.796Z,13.63
2019-04-04T19:45:33.764Z,13.57
2019-04-04T19:48:08.787Z,13.52
2019-04-04T19:50:53.002Z,13.47
2019-04-04T19:53:24.325Z,13.33
2019-04-04T19:56:04.163Z,13.23
2019-04-04T19:59:15.089Z,13.14
2019-04-04T20:02:11.636Z,13.07
2019-04-04T20:04:47.593Z,13.01
2019-04-04T20:07:23.698Z,12.97
2019-04-04T20:09:54.232Z,12.95
2019-04-04T20:12:29.209Z,12.93
2019-04-04T20:15:00.112Z,12.92
2019-04-04T20:17:42.037Z,12.90
2019-04-04T20:20:14.207Z,12.88
2019-04-04T20:22:54.538Z,12.82
2019-04-04T20:25:26.098Z,12.77
2019-04-04T20:28:02.147Z,12.71
2019-04-04T20:30:55.366Z,12.65
2019-04-04T20:33:27.864Z,12.59
2019-04-04T20:36:00.439Z,12.58
2019-04-04T20:38:31.709Z,12.52
2019-04-04T20:41:07.925Z,12.48
2019-04-04T20:43:43.596Z,12.43
2019-04-04T20:46:17.923Z,12.36
2019-04-04T20:49:00.841Z,12.30
2019-04-04T20:51:40.851Z,12.29
2019-04-04T20:54:44.654Z,12.28
2019-04-04T20:57:41.495Z,12.29
2019-04-04T21:00:18.063Z,12.27
2019-04-04T21:02:52.461Z,12.27
2019-04-04T21:05:23.442Z,12.26
2019-04-04T21:07:53.979Z,12.24
2019-04-04T21:10:39.069Z,12.21
2019-04-04T21:13:35.833Z,12.21
2019-04-04T21:16:07.450Z,12.21
2019-04-04T21:18:41.788Z,12.22
2019-04-04T21:21:21.899Z,12.23
2019-04-04T21:23:54.242Z,12.25
2019-04-04T21:26:27.894Z,12.26
2019-04-04T21:28:59.875Z,12.30
2019-04-04T21:31:40.798Z,12.43
2019-04-04T21:34:11.658Z,12.46
2019-04-04T21:36:46.461Z,12.45
2019-04-04T21:39:19.890Z,12.46
2019-04-04T21:41:52.289Z,12.47
2019-04-04T21:44:24.196Z,12.48
2019-04-04T21:46:55.057Z,12.50
2019-04-04T21:49:25.716Z,12.48
2019-04-04T21:52:02.234Z,12.49
2019-04-04T21:54:32.582Z,12.50
2019-04-04T21:57:05.743Z,12.53
2019-04-04T21:59:36.429Z,12.54
2019-04-04T22:02:07.377Z,12.53
2019-04-04T22:04:37.984Z,12.42
2019-04-04T22:07:10.567Z,12.40
2019-04-04T22:09:48.913Z,12.42
2019-04-04T22:12:20.099Z,12.31
2019-04-04T22:14:50.694Z,12.29
2019-04-04T22:17:21.172Z,12.32
2019-04-04T22:19:51.800Z,12.40
2019-04-04T22:22:28.371Z,12.41
2019-04-04T22:24:59.292Z,12.43
2019-04-04T22:27:30.301Z,12.51
2019-04-04T22:30:00.849Z,12.52
2019-04-04T22:32:34.678Z,12.57
2019-04-04T22:35:07.049Z,12.55
2019-04-04T22:37:37.452Z,12.56
2019-04-04T22:40:08.012Z,12.61
2019-04-04T22:42:44.183Z,12.68
2019-04-04T22:45:14.838Z,12.71
2019-04-04T22:47:45.465Z,12.65
2019-04-04T22:50:16.104Z,12.70
2019-04-04T22:52:49.194Z,12.70
2019-04-04T22:55:19.895Z,12.74
2019-04-04T22:57:52.982Z,12.75
2019-04-04T23:00:26.489Z,12.75
2019-04-04T23:02:57.858Z,12.75
2019-04-04T23:05:31.565Z,12.76
2019-04-04T23:08:04.152Z,12.80
2019-04-04T23:10:38.378Z,12.91
2019-04-04T23:13:08.936Z,12.97
2019-04-04T23:15:42.180Z,12.97
2019-04-04T23:18:15.038Z,12.99
2019-04-04T23:20:45.588Z,13.01
2019-04-04T23:23:16.198Z,12.99
2019-04-04T23:25:46.930Z,12.98
2019-04-04T23:28:21.052Z,13.01
2019-04-04T23:30:53.826Z,13.09
2019-04-04T23:33:25.679Z,13.11
2019-04-04T23:35:59.951Z,13.14
2019-04-04T23:38:39.610Z,13.17
2019-04-04T23:41:09.229Z,13.14
2019-04-04T23:43:42.817Z,13.10
2019-04-04T23:46:13.300Z,13.14
2019-04-04T23:48:46.698Z,13.13
2019-04-04T23:51:19.408Z,13.12
2019-04-04T23:53:50.465Z,13.12
2019-04-04T23:56:26.741Z,13.16
2019-04-04T23:58:57.457Z,13.17
